createdAt,value
2022-11-15T00:00:05.536Z,10.00
2022-11-15T00:05:22.020Z,10.10
2022-11-15T00:10:38.889Z,10.00
2022-11-15T00:15:59.513Z,10.10
2022-11-15T00:21:17.143Z,10.10
2022-11-15T00:26:33.636Z,10.10
2022-11-15T00:31:51.465Z,10.10
2022-11-15T00:37:08.510Z,10.10
2022-11-15T00:42:25.315Z,10.10
2022-11-15T00:47:45.808Z,10.10
2022-11-15T00:53:02.311Z,10.10
2022-11-15T00:58:18.898Z,10.10
2022-11-15T01:03:36.800Z,10.10
2022-11-15T01:08:53.170Z,10.10
2022-11-15T01:14:09.836Z,10.00
2022-11-15T01:19:27.743Z,10.00
2022-11-15T01:24:44.345Z,10.00
2022-11-15T01:30:00.952Z,10.00
2022-11-15T01:35:18.858Z,10.00
2022-11-15T01:40:35.450Z,9.90
2022-11-15T01:45:55.595Z,9.80
2022-11-15T01:51:16.669Z,9.80
2022-11-15T01:56:38.155Z,9.80
2022-11-15T02:01:55.176Z,10.10
2022-11-15T02:07:15.503Z,9.80
2022-11-15T02:12:32.694Z,9.80
2022-11-15T02:18:05.829Z,9.80
2022-11-15T02:23:56.005Z,9.80
2022-11-15T02:29:16.162Z,9.80
2022-11-15T02:34:44.335Z,9.70
2022-11-15T02:40:08.886Z,9.80
2022-11-15T02:45:29.925Z,9.70
2022-11-15T02:50:48.001Z,9.70
2022-11-15T02:56:05.107Z,9.70
2022-11-15T03:01:38.478Z,9.70
2022-11-15T03:07:03.960Z,9.80
2022-11-15T03:12:27.370Z,9.50
2022-11-15T03:17:49.821Z,9.60
2022-11-15T03:23:10.136Z,9.50
2022-11-15T03:28:33.698Z,9.90
2022-11-15T03:33:52.358Z,9.60
2022-11-15T03:39:13.232Z,9.60
2022-11-15T03:44:42.282Z,9.50
2022-11-15T03:50:03.194Z,9.60
2022-11-15T03:55:23.068Z,9.80
2022-11-15T04:00:39.532Z,9.50
2022-11-15T04:05:56.012Z,9.50
2022-11-15T04:11:13.893Z,9.50
2022-11-15T04:16:30.574Z,9.50
2022-11-15T04:22:04.153Z,9.50
2022-11-15T04:27:22.284Z,9.50
2022-11-15T04:32:39.110Z,9.50
2022-11-15T04:37:55.862Z,9.50
2022-11-15T04:43:13.916Z,9.50
2022-11-15T04:48:30.735Z,9.50
2022-11-15T04:53:47.300Z,9.50
2022-11-15T04:59:05.150Z,9.40
2022-11-15T05:04:22.097Z,9.30
2022-11-15T05:09:38.980Z,9.40
2022-11-15T05:14:56.765Z,9.40
2022-11-15T05:20:14.162Z,9.40
2022-11-15T05:25:30.897Z,9.40
2022-11-15T05:30:48.744Z,9.40
2022-11-15T05:36:09.712Z,9.40
2022-11-15T05:41:31.387Z,9.40
2022-11-15T05:46:50.467Z,9.40
2022-11-15T05:52:08.783Z,9.40
2022-11-15T05:57:26.381Z,9.40
2022-11-15T06:02:44.340Z,9.50
2022-11-15T06:08:00.919Z,9.50
2022-11-15T06:13:17.695Z,9.50
2022-11-15T06:18:36.544Z,9.60
2022-11-15T06:23:53.127Z,9.70
2022-11-15T06:29:09.650Z,9.80
2022-11-15T06:34:27.536Z,9.60
2022-11-15T06:39:44.253Z,9.70
2022-11-15T06:45:00.923Z,9.70
2022-11-15T06:50:19.306Z,9.60
2022-11-15T06:55:36.061Z,9.70
2022-11-15T07:00:52.588Z,9.70
2022-11-15T07:06:11.791Z,9.80
2022-11-15T07:11:28.495Z,9.80
2022-11-15T07:16:44.786Z,9.80
2022-11-15T07:22:02.472Z,9.90
2022-11-15T07:27:19.547Z,9.90
2022-11-15T07:32:36.890Z,10.00
2022-11-15T07:37:59.266Z,10.00
2022-11-15T07:43:16.218Z,10.00
2022-11-15T07:48:43.543Z,10.10
2022-11-15T07:54:02.735Z,10.10
2022-11-15T07:59:20.370Z,10.10
2022-11-15T08:04:37.124Z,10.20
2022-11-15T08:09:56.216Z,10.20
2022-11-15T08:15:12.688Z,10.30
2022-11-15T08:20:30.739Z,10.40
2022-11-15T08:25:48.800Z,10.80
2022-11-15T08:31:06.211Z,10.50
2022-11-15T08:36:22.987Z,10.60
2022-11-15T08:41:41.129Z,10.60
2022-11-15T08:46:57.912Z,10.60
2022-11-15T08:52:15.546Z,10.70
2022-11-15T08:57:33.691Z,10.70
2022-11-15T09:02:50.223Z,10.80
2022-11-15T09:08:25.523Z,10.80
2022-11-15T09:13:45.227Z,10.80
2022-11-15T09:19:02.174Z,10.80
2022-11-15T09:24:19.371Z,10.90
2022-11-15T09:29:37.867Z,10.90
2022-11-15T09:34:54.640Z,10.90
2022-11-15T09:40:17.276Z,11.00
2022-11-15T09:45:40.642Z,11.10
2022-11-15T09:51:00.794Z,11.20
2022-11-15T09:56:02.888Z,11.30
2022-11-15T10:01:08.778Z,11.40
2022-11-15T10:06:08.535Z,11.50
2022-11-15T10:17:05.395Z,11.70
2022-11-15T10:22:17.681Z,11.80
2022-11-15T10:27:17.168Z,11.90
2022-11-15T10:32:19.302Z,12.00
2022-11-15T10:37:30.067Z,12.00
2022-11-15T10:42:30.077Z,12.10
2022-11-15T10:47:37.798Z,12.20
2022-11-15T10:52:39.319Z,12.30
2022-11-15T10:57:40.119Z,12.40
2022-11-15T11:02:41.032Z,12.50
2022-11-15T11:07:39.154Z,12.60
2022-11-15T11:12:37.771Z,12.70
2022-11-15T11:17:53.368Z,12.70
2022-11-15T11:23:04.447Z,12.80
2022-11-15T11:28:23.043Z,12.90
2022-11-15T11:33:29.106Z,13.00
2022-11-15T11:38:55.852Z,13.00
2022-11-15T11:44:05.525Z,13.10
2022-11-15T11:49:10.943Z,13.20
2022-11-15T11:54:16.899Z,13.30
2022-11-15T11:59:23.341Z,13.30
2022-11-15T12:04:28.147Z,13.40
2022-11-15T12:09:34.040Z,13.40
2022-11-15T12:14:44.779Z,13.40
2022-11-15T12:19:44.744Z,13.50
2022-11-15T12:24:47.241Z,13.50
2022-11-15T12:29:49.739Z,13.50
2022-11-15T12:34:51.295Z,13.50
2022-11-15T12:40:22.389Z,13.50
2022-11-15T12:45:28.941Z,13.60
2022-11-15T12:50:57.457Z,13.60
2022-11-15T12:56:11.727Z,13.70
2022-11-15T13:01:10.029Z,13.70
2022-11-15T13:06:31.334Z,13.60
2022-11-15T13:11:53.686Z,13.70
2022-11-15T13:17:00.087Z,13.70
2022-11-15T13:22:16.119Z,13.70
2022-11-15T13:27:19.759Z,13.70
2022-11-15T13:32:18.884Z,13.80
2022-11-15T13:37:32.108Z,13.70
2022-11-15T13:42:31.653Z,13.70
2022-11-15T13:47:31.044Z,13.70
2022-11-15T13:52:33.384Z,13.70
2022-11-15T13:57:41.839Z,13.70
2022-11-15T14:02:40.247Z,13.70
2022-11-15T14:07:44.339Z,13.70
2022-11-15T14:12:52.874Z,13.70
2022-11-15T14:17:50.990Z,13.70
2022-11-15T14:22:54.738Z,13.70
2022-11-15T14:28:18.738Z,13.70
2022-11-15T14:33:25.434Z,13.70
2022-11-15T14:38:23.621Z,13.60
2022-11-15T14:43:23.370Z,13.60
2022-11-15T14:49:22.607Z,13.60
2022-11-15T14:54:20.751Z,13.60
2022-11-15T14:59:20.268Z,13.50
2022-11-15T15:04:18.377Z,13.50
2022-11-15T15:09:16.566Z,13.40
2022-11-15T15:14:16.460Z,13.40
2022-11-15T15:19:15.938Z,13.30
2022-11-15T15:24:16.780Z,13.30
2022-11-15T15:30:26.946Z,13.30
2022-11-15T15:35:29.892Z,13.30
2022-11-15T15:40:30.754Z,13.20
2022-11-15T15:45:30.467Z,13.20
2022-11-15T15:50:33.921Z,13.10
2022-11-15T15:55:32.412Z,13.10
2022-11-15T16:00:33.644Z,13.10
2022-11-15T16:05:33.149Z,13.00
2022-11-15T16:10:33.258Z,13.00
2022-11-15T16:15:33.803Z,13.00
2022-11-15T16:20:36.838Z,13.00
2022-11-15T16:25:39.634Z,12.90
2022-11-15T16:30:37.703Z,12.90
2022-11-15T16:35:37.101Z,12.80
2022-11-15T16:40:36.371Z,12.80
2022-11-15T16:52:29.984Z,12.70
2022-11-15T16:57:28.035Z,12.60
2022-11-15T17:02:26.166Z,12.70
2022-11-15T17:07:25.262Z,12.70
2022-11-15T17:12:24.761Z,12.70
2022-11-15T17:17:22.877Z,12.70
2022-11-15T17:22:21.142Z,12.70
2022-11-15T17:27:21.483Z,12.70
2022-11-15T17:32:20.967Z,12.70
2022-11-15T17:37:19.133Z,12.70
2022-11-15T17:42:17.286Z,12.70
2022-11-15T17:47:15.418Z,12.70
2022-11-15T17:52:15.054Z,12.70
2022-11-15T18:04:03.009Z,12.70
2022-11-15T18:09:03.682Z,12.70
2022-11-15T18:14:03.871Z,12.70
2022-11-15T18:19:02.236Z,12.70
2022-11-15T18:24:02.967Z,12.70
2022-11-15T18:36:02.146Z,12.70
2022-11-15T18:41:07.833Z,12.70
2022-11-15T18:46:07.224Z,12.80
2022-11-15T18:51:06.751Z,12.80
2022-11-15T18:56:08.406Z,12.70
2022-11-15T19:01:08.504Z,12.80
2022-11-15T19:06:08.348Z,12.80
2022-11-15T19:11:09.882Z,12.80
2022-11-15T19:16:09.251Z,12.80
2022-11-15T19:21:12.224Z,12.70
2022-11-15T19:26:16.007Z,12.70
2022-11-15T19:31:15.808Z,12.70
2022-11-15T19:36:15.373Z,12.70
2022-11-15T19:41:16.431Z,12.70
2022-11-15T19:46:14.913Z,12.70
2022-11-15T19:51:14.654Z,12.80
2022-11-15T19:56:16.255Z,12.80
2022-11-15T20:01:19.016Z,12.90
2022-11-15T20:06:18.986Z,12.90
2022-11-15T20:11:19.224Z,12.80
2022-11-15T20:16:19.304Z,12.80
2022-11-15T20:21:18.374Z,12.80
2022-11-15T20:26:17.928Z,12.80
2022-11-15T20:31:44.208Z,12.90
2022-11-15T20:36:42.396Z,12.90
2022-11-15T20:41:41.924Z,12.80
2022-11-15T20:46:40.128Z,12.80
2022-11-15T20:51:38.246Z,12.80
2022-11-15T20:56:36.340Z,12.80
2022-11-15T21:01:35.914Z,12.80
2022-11-15T21:06:34.083Z,12.80
2022-11-15T21:11:49.491Z,12.80
2022-11-15T21:16:49.075Z,12.80
2022-11-15T21:21:47.220Z,12.80
2022-11-15T21:26:45.381Z,12.90
2022-11-15T21:31:43.576Z,13.00
2022-11-15T21:36:43.088Z,13.00
2022-11-15T21:41:41.422Z,12.90
2022-11-15T21:46:39.559Z,12.80
2022-11-15T21:51:37.889Z,12.80
2022-11-15T21:56:37.455Z,12.80
2022-11-15T22:01:52.533Z,12.70
2022-11-15T22:06:50.868Z,12.70
2022-11-15T22:11:50.395Z,12.70
2022-11-15T22:16:48.543Z,12.70
2022-11-15T22:21:46.781Z,12.70
2022-11-15T22:26:45.046Z,12.70
2022-11-15T22:31:44.654Z,12.70
2022-11-15T22:37:13.319Z,12.60
2022-11-15T22:42:03.677Z,12.60
2022-11-15T22:47:03.541Z,12.50
2022-11-15T22:52:01.773Z,12.50
2022-11-15T22:57:00.011Z,12.40
2022-11-15T23:01:58.308Z,12.30
2022-11-15T23:06:58.067Z,12.30
2022-11-15T23:12:13.735Z,12.20
2022-11-15T23:17:12.057Z,12.20
2022-11-15T23:22:28.929Z,12.10
2022-11-15T23:27:27.407Z,12.00
2022-11-15T23:32:40.742Z,12.00
2022-11-15T23:38:37.891Z,11.90
2022-11-15T23:43:37.554Z,11.90
2022-11-15T23:48:35.990Z,11.90
2022-11-15T23:53:34.451Z,11.90
2022-11-15T23:58:33.441Z,11.80
